N172SP EDDK-EDLF
Flight info
| Callsign | N172SP |
|---|---|
| Flight time | N/A |
| Altitude | |
| Route | |
| Aircraft | C172 |
Departure
| Time | 2026-04-22 19:50 |
|---|---|
| Airport | Cologne Bonn Airport (EDDK) |
Arrival
| Time | N/A |
|---|---|
| Airport | Grefrath-Niershorst Airfield (EDLF) |
| Time | Latitude | Longitude | Altitude | Speed | Heading |
|---|---|---|---|---|---|
| 2026-04-22 19:45 | 50.87135 | 7.12211 | 226 ft | 0 kts | 229° |
| 2026-04-22 19:46 | 50.87134 | 7.12208 | 226 ft | 2 kts | 230° |
| 2026-04-22 19:46 | 50.87086 | 7.12124 | 224 ft | 13 kts | 230° |
| 2026-04-22 19:47 | 50.87065 | 7.12113 | 224 ft | 0 kts | 135° |
| 2026-04-22 19:49 | 50.87064 | 7.12116 | 224 ft | 2 kts | 134° |
| 2026-04-22 19:49 | 50.86935 | 7.12303 | 228 ft | 54 kts | 136° |
| 2026-04-22 19:49 | 50.86582 | 7.12829 | 336 ft | 75 kts | 119° |
| 2026-04-22 19:49 | 50.86141 | 7.13223 | 557 ft | 82 kts | 177° |
| 2026-04-22 19:50 | 50.85622 | 7.12787 | 740 ft | 88 kts | 236° |
| 2026-04-22 19:50 | 50.85643 | 7.11920 | 901 ft | 82 kts | 317° |
| 2026-04-22 19:50 | 50.85983 | 7.11154 | 1073 ft | 89 kts | 304° |
| 2026-04-22 19:50 | 50.86267 | 7.10232 | 1182 ft | 101 kts | 300° |
| 2026-04-22 19:51 | 50.86541 | 7.09188 | 1333 ft | 102 kts | 301° |
| 2026-04-22 19:51 | 50.86887 | 7.08241 | 1510 ft | 101 kts | 307° |
| 2026-04-22 19:51 | 50.87221 | 7.07278 | 1692 ft | 101 kts | 306° |
| 2026-04-22 19:51 | 50.87552 | 7.06221 | 1780 ft | 111 kts | 300° |
| 2026-04-22 19:52 | 50.87853 | 7.05105 | 1915 ft | 111 kts | 301° |
| 2026-04-22 19:52 | 50.88157 | 7.04006 | 1990 ft | 108 kts | 298° |
| 2026-04-22 19:52 | 50.88441 | 7.02893 | 2021 ft | 107 kts | 295° |
| 2026-04-22 19:52 | 50.88703 | 7.01766 | 2027 ft | 107 kts | 302° |
| 2026-04-22 19:53 | 50.89028 | 7.00695 | 1996 ft | 112 kts | 303° |
| 2026-04-22 19:53 | 50.89400 | 6.99635 | 1992 ft | 110 kts | 308° |
| 2026-04-22 19:53 | 50.89902 | 6.98748 | 1974 ft | 104 kts | 330° |
| 2026-04-22 19:53 | 50.90483 | 6.98090 | 1971 ft | 103 kts | 336° |
| 2026-04-22 19:54 | 50.91095 | 6.97490 | 1975 ft | 102 kts | 336° |
| 2026-04-22 19:54 | 50.91698 | 6.96940 | 2046 ft | 96 kts | 337° |
| 2026-04-22 19:54 | 50.92279 | 6.96408 | 2057 ft | 98 kts | 338° |
| 2026-04-22 19:54 | 50.92876 | 6.95838 | 2061 ft | 100 kts | 336° |
| 2026-04-22 19:55 | 50.93470 | 6.95257 | 2059 ft | 101 kts | 336° |
| 2026-04-22 19:55 | 50.94070 | 6.94668 | 2059 ft | 102 kts | 336° |
| 2026-04-22 19:55 | 50.94682 | 6.94066 | 2062 ft | 102 kts | 336° |
| 2026-04-22 19:55 | 50.95288 | 6.93470 | 2059 ft | 102 kts | 336° |
| 2026-04-22 19:56 | 50.95889 | 6.92882 | 2065 ft | 102 kts | 335° |
| 2026-04-22 19:56 | 50.96490 | 6.92281 | 2060 ft | 102 kts | 335° |
| 2026-04-22 19:56 | 50.97097 | 6.91682 | 2058 ft | 102 kts | 335° |
| 2026-04-22 19:56 | 50.97699 | 6.91090 | 2057 ft | 102 kts | 335° |
| 2026-04-22 19:57 | 50.98304 | 6.90492 | 2061 ft | 101 kts | 336° |
| 2026-04-22 19:57 | 50.98900 | 6.89901 | 2060 ft | 101 kts | 335° |
| 2026-04-22 19:57 | 50.99503 | 6.89306 | 2061 ft | 101 kts | 335° |
| 2026-04-22 19:57 | 51.00063 | 6.88617 | 2059 ft | 106 kts | 318° |
| 2026-04-22 19:58 | 51.00476 | 6.87615 | 2055 ft | 109 kts | 307° |
| 2026-04-22 19:58 | 51.00856 | 6.86580 | 2049 ft | 109 kts | 307° |
| 2026-04-22 19:58 | 51.01237 | 6.85534 | 2048 ft | 109 kts | 307° |
| 2026-04-22 19:58 | 51.01620 | 6.84482 | 2047 ft | 109 kts | 307° |
| 2026-04-22 19:59 | 51.01998 | 6.83444 | 2046 ft | 110 kts | 307° |
| 2026-04-22 20:00 | 51.04303 | 6.77143 | 2049 ft | 109 kts | 307° |
| 2026-04-22 20:00 | 51.04682 | 6.76084 | 2049 ft | 109 kts | 307° |
| 2026-04-22 20:01 | 51.05059 | 6.75035 | 2049 ft | 109 kts | 307° |
| 2026-04-22 20:01 | 51.05433 | 6.73998 | 2049 ft | 109 kts | 307° |
| 2026-04-22 20:01 | 51.05811 | 6.72949 | 2050 ft | 109 kts | 307° |
| 2026-04-22 20:01 | 51.06185 | 6.71905 | 2049 ft | 109 kts | 307° |
| 2026-04-22 20:02 | 51.06563 | 6.70852 | 2050 ft | 109 kts | 307° |
| 2026-04-22 20:02 | 51.06939 | 6.69803 | 2049 ft | 109 kts | 307° |
| 2026-04-22 20:02 | 51.07315 | 6.68744 | 2050 ft | 110 kts | 307° |
| 2026-04-22 20:02 | 51.07691 | 6.67682 | 2050 ft | 110 kts | 307° |
| 2026-04-22 20:03 | 51.08064 | 6.66628 | 2050 ft | 110 kts | 307° |
| 2026-04-22 20:03 | 51.08443 | 6.65563 | 2048 ft | 110 kts | 307° |
| 2026-04-22 20:03 | 51.08820 | 6.64510 | 2047 ft | 110 kts | 307° |